Time;durP1;ratioP1;P1;durP2;ratioP2;P2;SDS_P1;SDS_P2;PMS_P1;PMS_P2;Temp;Humidity;BMP_temperature;BMP_pressure;BME280_temperature;BME280_humidity;BME280_pressure;Samples;Min_cycle;Max_cycle;Signal;HPM_P1;HPM_P2
2023/05/14 00:00:21;;;;;;;;;;;;;;;;;;5043932;28;19929;-69
2023/05/14 00:02:48;;;;;;;;;;;;;;;;;;5043133;28;19963;-68
2023/05/14 00:05:15;;;;;;;;;;;;;;;;;;5063684;28;19924;-69
2023/05/14 00:07:42;;;;;;;;;;;;;;;;;;5057618;28;19971;-68
2023/05/14 00:10:10;;;;;;;;;;;;;;;;;;5045523;28;19924;-69
2023/05/14 00:12:37;;;;;;;;;;;;;;;;;;5050813;28;19928;-69
2023/05/14 00:15:04;;;;;;;;;;;;;;;;;;5052124;28;19980;-68
2023/05/14 00:17:31;;;;;;;;;;;;;;;;;;5045424;28;19933;-69
2023/05/14 00:19:58;;;;;;;;;;;;;;;;;;5052101;28;19968;-68
2023/05/14 00:22:25;;;;;;;;;;;;;;;;;;5045923;28;19929;-68
2023/05/14 00:24:52;;;;;;;;;;;;;;;;;;5044724;28;20014;-68
2023/05/14 00:27:19;;;;;;;;;;;;;;;;;;5046508;28;20640;-68
2023/05/14 00:29:46;;;;;;;;;;;;;;;;;;5048695;28;19925;-68
2023/05/14 00:32:13;;;;;;;;;;;;;;;;;;5042338;28;20657;-68
2023/05/14 00:34:40;;;;;;;;;;;;;;;;;;5044517;28;19971;-69
2023/05/14 00:37:07;;;;;;;;;;;;;;;;;;5044878;28;19972;-68
2023/05/14 00:39:34;;;;;;;;;;;;;;;;;;5044359;28;19978;-68
2023/05/14 00:42:01;;;;;;;;;;;;;;;;;;5044508;28;19968;-68
2023/05/14 00:44:28;;;;;;;;;;;;;;;;;;5044838;28;20477;-69
2023/05/14 00:46:55;;;;;;;;;;;;;;;;;;5053187;28;19928;-69
2023/05/14 00:49:22;;;;;;;;;;;;;;;;;;5043878;28;20399;-68
2023/05/14 00:51:49;;;;;;;;;;;;;;;;;;5044899;28;19951;-67
2023/05/14 00:54:16;;;;;;;;;;;;;;;;;;5040503;28;20032;-67
2023/05/14 00:56:43;;;;;;;;;;;;;;;;;;5045796;28;19964;-68
2023/05/14 00:59:10;;;;;;;;;;;;;;;;;;5044724;28;19925;-67
2023/05/14 01:01:37;;;;;;;;;;;;;;;;;;5045977;28;19925;-67
2023/05/14 01:04:04;;;;;;;;;;;;;;;;;;5042075;28;20077;-68
2023/05/14 01:06:31;;;;;;;;;;;;;;;;;;5043804;28;20012;-67
2023/05/14 01:08:58;;;;;;;;;;;;;;;;;;5049014;28;19931;-68
2023/05/14 01:11:25;;;;;;;;;;;;;;;;;;5046362;28;19971;-67
2023/05/14 01:13:52;;;;;;;;;;;;;;;;;;5045559;28;20387;-68
2023/05/14 01:16:19;;;;;;;;;;;;;;;;;;5055577;28;19975;-67
2023/05/14 01:18:46;;;;;;;;;;;;;;;;;;5050660;28;20034;-67
2023/05/14 01:21:13;;;;;;;;;;;;;;;;;;5050733;28;19925;-67
2023/05/14 01:23:40;;;;;;;;;;;;;;;;;;5045870;28;19983;-67
2023/05/14 01:26:07;;;;;;;;;;;;;;;;;;5043287;28;19960;-67
2023/05/14 01:28:34;;;;;;;;;;;;;;;;;;5043455;28;19999;-67
2023/05/14 01:31:01;;;;;;;;;;;;;;;;;;5051931;28;20387;-67
2023/05/14 01:33:28;;;;;;;;;;;;;;;;;;5053510;28;19937;-67
2023/05/14 01:35:55;;;;;;;;;;;;;;;;;;5050287;28;20070;-67
2023/05/14 01:38:22;;;;;;;;;;;;;;;;;;5051387;28;19951;-69
2023/05/14 01:40:49;;;;;;;;;;;;;;;;;;5047547;28;19948;-69
2023/05/14 01:43:16;;;;;;;;;;;;;;;;;;5043203;28;19929;-67
2023/05/14 01:45:43;;;;;;;;;;;;;;;;;;5042434;28;19976;-68
2023/05/14 01:48:10;;;;;;;;;;;;;;;;;;5042288;28;19972;-68
2023/05/14 01:50:37;;;;;;;;;;;;;;;;;;5047851;28;20320;-68
2023/05/14 01:53:04;;;;;;;;;;;;;;;;;;5041860;28;19925;-68
2023/05/14 01:55:31;;;;;;;;;;;;;;;;;;5047813;28;19925;-68
2023/05/14 01:57:58;;;;;;;;;;;;;;;;;;5047708;28;19925;-68
2023/05/14 02:00:25;;;;;;;;;;;;;;;;;;5045164;28;20384;-68
2023/05/14 02:02:52;;;;;;;;;;;;;;;;;;5048585;28;20013;-68
2023/05/14 02:05:19;;;;;;;;;;;;;;;;;;5042221;28;19936;-68
2023/05/14 02:07:46;;;;;;;;;;;;;;;;;;5046087;28;19952;-67
2023/05/14 02:10:13;;;;;;;;;;;;;;;;;;5047081;28;20065;-69
2023/05/14 02:12:40;;;;;;;;;;;;;;;;;;5046325;28;20384;-68
2023/05/14 02:15:09;;;;;;;;;;;;;;;;;;5047358;28;19940;-68
2023/05/14 02:17:36;;;;;;;;;;;;;;;;;;5047996;28;19924;-68
2023/05/14 02:20:04;;;;;;;;;;;;;;;;;;5054360;28;20012;-68
2023/05/14 02:22:30;;;;;;;;;;;;;;;;;;5047942;28;19933;-68
2023/05/14 02:24:58;;;;;;;;;;;;;;;;;;5046795;28;19975;-68
2023/05/14 02:27:24;;;;;;;;;;;;;;;;;;5045865;28;19971;-68
2023/05/14 02:29:51;;;;;;;;;;;;;;;;;;5046560;28;20905;-68
2023/05/14 02:32:18;;;;;;;;;;;;;;;;;;5046814;28;20014;-69
2023/05/14 02:34:45;;;;;;;;;;;;;;;;;;5050939;28;19933;-69
2023/05/14 02:37:12;;;;;;;;;;;;;;;;;;5046568;28;19931;-68
2023/05/14 02:39:39;;;;;;;;;;;;;;;;;;5047954;28;19933;-69
2023/05/14 02:42:06;;;;;;;;;;;;;;;;;;5045217;28;19925;-68
2023/05/14 02:44:33;;;;;;;;;;;;;;;;;;5046952;28;19932;-68
2023/05/14 02:47:00;;;;;;;;;;;;;;;;;;5044543;28;19933;-68
2023/05/14 02:49:27;;;;;;;;;;;;;;;;;;5047260;28;19965;-68
2023/05/14 02:51:54;;;;;;;;;;;;;;;;;;5049743;28;19971;-68
2023/05/14 02:54:21;;;;;;;;;;;;;;;;;;5046571;28;19972;-68
2023/05/14 02:56:48;;;;;;;;;;;;;;;;;;5050594;28;20340;-68
2023/05/14 02:59:15;;;;;;;;;;;;;;;;;;5055381;28;19932;-68
2023/05/14 03:01:45;;;;;;;;;;;;;;;;;;5047261;28;19925;-69
2023/05/14 03:04:12;;;;;;;;;;;;;;;;;;5047372;28;19976;-68
2023/05/14 03:06:39;;;;;;;;;;;;;;;;;;5051276;28;19979;-68
2023/05/14 03:09:06;;;;;;;;;;;;;;;;;;5046924;28;19976;-67
2023/05/14 03:11:33;;;;;;;;;;;;;;;;;;5045473;28;19931;-67
2023/05/14 03:14:01;;;;;;;;;;;;;;;;;;5047183;28;19933;-67
2023/05/14 03:16:28;;;;;;;;;;;;;;;;;;5052170;28;19939;-67
2023/05/14 03:18:55;;;;;;;;;;;;;;;;;;5053827;28;20384;-68
2023/05/14 03:21:21;;;;;;;;;;;;;;;;;;5055991;28;19981;-69
2023/05/14 03:23:48;;;;;;;;;;;;;;;;;;5062588;28;19978;-69
2023/05/14 03:26:15;;;;;;;;;;;;;;;;;;5051419;28;20592;-69
2023/05/14 03:28:42;;;;;;;;;;;;;;;;;;5053047;28;19925;-69
2023/05/14 03:31:09;;;;;;;;;;;;;;;;;;5050196;28;19994;-69
2023/05/14 03:33:36;;;;;;;;;;;;;;;;;;5054770;28;19987;-69
2023/05/14 03:36:03;;;;;;;;;;;;;;;;;;5053153;28;19960;-69
2023/05/14 03:38:30;;;;;;;;;;;;;;;;;;5051305;28;19924;-69
2023/05/14 03:40:57;;;;;;;;;;;;;;;;;;5054997;28;19979;-69
2023/05/14 03:43:24;;;;;;;;;;;;;;;;;;5050904;28;19964;-69
2023/05/14 03:45:51;;;;;;;;;;;;;;;;;;5052517;28;19928;-69
2023/05/14 03:48:18;;;;;;;;;;;;;;;;;;5049564;28;19933;-70
2023/05/14 03:50:46;;;;;;;;;;;;;;;;;;5053500;28;19929;-69
2023/05/14 03:53:13;;;;;;;;;;;;;;;;;;5054099;28;19971;-68
2023/05/14 03:55:40;;;;;;;;;;;;;;;;;;5056112;28;19924;-68
2023/05/14 03:58:12;;;;;;;;;;;;;;;;;;5051751;28;19924;-68
2023/05/14 04:00:39;;;;;;;;;;;;;;;;;;5050713;28;19925;-68
2023/05/14 04:03:06;;;;;;;;;;;;;;;;;;5051548;28;19979;-68
2023/05/14 04:05:33;;;;;;;;;;;;;;;;;;5052549;28;19931;-68
2023/05/14 04:08:00;;;;;;;;;;;;;;;;;;5051206;28;19925;-68
2023/05/14 04:10:27;;;;;;;;;;;;;;;;;;5050471;28;19947;-68
2023/05/14 04:12:55;;;;;;;;;;;;;;;;;;5050071;28;19928;-68
2023/05/14 04:15:22;;;;;;;;;;;;;;;;;;5053047;28;20020;-68
2023/05/14 04:17:49;;;;;;;;;;;;;;;;;;5051227;28;20330;-68
2023/05/14 04:20:16;;;;;;;;;;;;;;;;;;5050308;28;19964;-68
2023/05/14 04:22:43;;;;;;;;;;;;;;;;;;5052181;28;19924;-68
2023/05/14 04:25:10;;;;;;;;;;;;;;;;;;5052650;28;20352;-69
2023/05/14 04:27:37;;;;;;;;;;;;;;;;;;5050797;28;19979;-68
2023/05/14 04:30:04;;;;;;;;;;;;;;;;;;5051497;28;19979;-69
2023/05/14 04:32:31;;;;;;;;;;;;;;;;;;5049004;28;19982;-68
2023/05/14 04:34:58;;;;;;;;;;;;;;;;;;5052125;28;19960;-68
2023/05/14 04:37:25;;;;;;;;;;;;;;;;;;5042533;28;19941;-68
2023/05/14 04:39:52;;;;;;;;;;;;;;;;;;5051235;28;19925;-68
2023/05/14 04:42:19;;;;;;;;;;;;;;;;;;5046987;28;19979;-68
2023/05/14 04:44:45;;;;;;;;;;;;;;;;;;5051130;28;20010;-68
2023/05/14 04:47:12;;;;;;;;;;;;;;;;;;5050754;28;19964;-68
2023/05/14 04:49:40;;;;;;;;;;;;;;;;;;5050692;28;19928;-68
2023/05/14 04:52:06;;;;;;;;;;;;;;;;;;5058854;28;19925;-68
2023/05/14 04:54:33;;;;;;;;;;;;;;;;;;5050811;28;19929;-68
2023/05/14 04:57:02;;;;;;;;;;;;;;;;;;5048014;28;19968;-68
2023/05/14 04:59:29;;;;;;;;;;;;;;;;;;5050126;28;19925;-68
2023/05/14 05:01:56;;;;;;;;;;;;;;;;;;5052934;28;19925;-69
2023/05/14 05:04:23;;;;;;;;;;;;;;;;;;5049936;28;19932;-69
2023/05/14 05:06:50;;;;;;;;;;;;;;;;;;5047356;28;20019;-70
2023/05/14 05:09:17;;;;;;;;;;;;;;;;;;5048346;28;19925;-69
2023/05/14 05:11:44;;;;;;;;;;;;;;;;;;5048779;28;19925;-69
2023/05/14 05:14:11;;;;;;;;;;;;;;;;;;5055975;28;19947;-67
2023/05/14 05:16:38;;;;;;;;;;;;;;;;;;5052775;28;19968;-68
2023/05/14 05:19:05;;;;;;;;;;;;;;;;;;5048401;28;19982;-69
2023/05/14 05:21:32;;;;;;;;;;;;;;;;;;5049949;28;19968;-68
2023/05/14 05:23:59;;;;;;;;;;;;;;;;;;5050918;28;19925;-67
2023/05/14 05:26:26;;;;;;;;;;;;;;;;;;5054650;28;19959;-67
2023/05/14 05:28:53;;;;;;;;;;;;;;;;;;5048532;28;19931;-67
2023/05/14 05:31:20;;;;;;;;;;;;;;;;;;5054089;28;20341;-69
2023/05/14 05:33:47;;;;;;;;;;;;;;;;;;5050222;28;19932;-67
2023/05/14 05:36:14;;;;;;;;;;;;;;;;;;5050053;28;19990;-67
2023/05/14 05:38:41;;;;;;;;;;;;;;;;;;5049716;28;20372;-68
2023/05/14 05:41:08;;;;;;;;;;;;;;;;;;5054192;28;19986;-67
2023/05/14 05:43:35;;;;;;;;;;;;;;;;;;5048192;28;20502;-67
2023/05/14 05:46:02;;;;;;;;;;;;;;;;;;5046386;28;19971;-67
2023/05/14 05:48:29;;;;;;;;;;;;;;;;;;5050597;28;19983;-67
2023/05/14 05:50:56;;;;;;;;;;;;;;;;;;5049820;28;19928;-67
2023/05/14 05:53:23;;;;;;;;;;;;;;;;;;5046546;28;19933;-67
2023/05/14 05:55:50;;;;;;;;;;;;;;;;;;5048550;28;20328;-68
2023/05/14 05:58:17;;;;;;;;;;;;;;;;;;5051495;28;19925;-68
2023/05/14 06:00:45;;;;;;;;;;;;;;;;;;5048605;28;19925;-68
2023/05/14 06:03:12;;;;;;;;;;;;;;;;;;5051702;28;20489;-67
2023/05/14 06:05:39;;;;;;;;;;;;;;;;;;5050185;28;19929;-67
2023/05/14 06:08:06;;;;;;;;;;;;;;;;;;5046443;28;19925;-67
2023/05/14 06:10:33;;;;;;;;;;;;;;;;;;5048118;28;19964;-67
2023/05/14 06:13:00;;;;;;;;;;;;;;;;;;5051144;28;20012;-67
2023/05/14 06:15:27;;;;;;;;;;;;;;;;;;5047910;28;19983;-67
2023/05/14 06:17:54;;;;;;;;;;;;;;;;;;5064250;28;19967;-67
2023/05/14 06:20:21;;;;;;;;;;;;;;;;;;5048226;28;20392;-67
2023/05/14 06:22:48;;;;;;;;;;;;;;;;;;5045029;28;19978;-67
2023/05/14 06:25:15;;;;;;;;;;;;;;;;;;5066179;28;19925;-67
2023/05/14 06:27:42;;;;;;;;;;;;;;;;;;5050635;28;19964;-67
2023/05/14 06:30:10;;;;;;;;;;;;;;;;;;5047699;28;19956;-67
2023/05/14 06:32:37;;;;;;;;;;;;;;;;;;5052030;28;19924;-68
2023/05/14 06:35:04;;;;;;;;;;;;;;;;;;5049320;28;19925;-67
2023/05/14 06:37:31;;;;;;;;;;;;;;;;;;5049258;28;19924;-67
2023/05/14 06:39:58;;;;;;;;;;;;;;;;;;5049331;28;20473;-67
2023/05/14 06:42:26;;;;;;;;;;;;;;;;;;5049031;28;19925;-68
2023/05/14 06:44:53;;;;;;;;;;;;;;;;;;5050049;28;19931;-67
2023/05/14 06:47:20;;;;;;;;;;;;;;;;;;5041252;28;19925;-68
2023/05/14 06:49:47;;;;;;;;;;;;;;;;;;5045127;28;19968;-68
2023/05/14 06:52:14;;;;;;;;;;;;;;;;;;5044387;28;20342;-68
2023/05/14 06:54:41;;;;;;;;;;;;;;;;;;5041227;28;19925;-67
2023/05/14 06:57:08;;;;;;;;;;;;;;;;;;5045030;28;20408;-69
2023/05/14 06:59:35;;;;;;;;;;;;;;;;;;5053676;28;19924;-69
2023/05/14 07:02:02;;;;;;;;;;;;;;;;;;5047911;28;19972;-68
2023/05/14 07:04:29;;;;;;;;;;;;;;;;;;5043657;28;20043;-69
2023/05/14 07:06:56;;;;;;;;;;;;;;;;;;5043396;28;19995;-67
2023/05/14 07:09:23;;;;;;;;;;;;;;;;;;5054662;28;20364;-67
2023/05/14 07:11:50;;;;;;;;;;;;;;;;;;5053721;28;19964;-67
2023/05/14 07:14:17;;;;;;;;;;;;;;;;;;5052196;28;19981;-66
2023/05/14 07:16:45;;;;;;;;;;;;;;;;;;5052359;28;19932;-66
2023/05/14 07:19:12;;;;;;;;;;;;;;;;;;5052848;28;20392;-66
2023/05/14 07:21:39;;;;;;;;;;;;;;;;;;5054768;28;20022;-67
2023/05/14 07:24:06;;;;;;;;;;;;;;;;;;5051162;28;19924;-68
2023/05/14 07:26:33;;;;;;;;;;;;;;;;;;5051333;28;19928;-68
2023/05/14 07:29:00;;;;;;;;;;;;;;;;;;5041852;28;19929;-67
2023/05/14 07:31:27;;;;;;;;;;;;;;;;;;5046308;28;19937;-67
2023/05/14 07:33:54;;;;;;;;;;;;;;;;;;5048020;28;20403;-66
2023/05/14 07:36:21;;;;;;;;;;;;;;;;;;5051262;28;19979;-67
2023/05/14 07:38:48;;;;;;;;;;;;;;;;;;5051685;28;19924;-67
2023/05/14 07:41:15;;;;;;;;;;;;;;;;;;5050838;28;20367;-67
2023/05/14 07:43:42;;;;;;;;;;;;;;;;;;5046088;28;19964;-66
2023/05/14 07:46:09;;;;;;;;;;;;;;;;;;5050523;28;19982;-68
2023/05/14 07:48:36;;;;;;;;;;;;;;;;;;5053292;28;19986;-68
2023/05/14 07:51:03;;;;;;;;;;;;;;;;;;5050835;28;19983;-67
2023/05/14 07:53:30;;;;;;;;;;;;;;;;;;5049711;28;20385;-67
2023/05/14 07:55:58;;;;;;;;;;;;;;;;;;5051958;28;19928;-67
2023/05/14 07:58:26;;;;;;;;;;;;;;;;;;5051990;28;20018;-67
2023/05/14 08:00:53;;;;;;;;;;;;;;;;;;5052081;28;19960;-69
2023/05/14 08:03:20;;;;;;;;;;;;;;;;;;5055252;28;20006;-68
2023/05/14 08:05:47;;;;;;;;;;;;;;;;;;5052936;28;19976;-67
2023/05/14 08:08:15;;;;;;;;;;;;;;;;;;5053596;28;20384;-67
2023/05/14 08:10:42;;;;;;;;;;;;;;;;;;5052262;28;19924;-68
2023/05/14 08:13:09;;;;;;;;;;;;;;;;;;5048954;28;19925;-68
2023/05/14 08:15:36;;;;;;;;;;;;;;;;;;5037016;28;20354;-68
2023/05/14 08:18:03;;;;;;;;;;;;;;;;;;5053480;28;19998;-68
2023/05/14 08:20:30;;;;;;;;;;;;;;;;;;5049331;28;20434;-68
2023/05/14 08:22:57;;;;;;;;;;;;;;;;;;5047494;28;20019;-67
2023/05/14 08:25:24;;;;;;;;;;;;;;;;;;5052824;28;20016;-68
2023/05/14 08:27:53;;;;;;;;;;;;;;;;;;5050689;28;20376;-67
2023/05/14 08:30:20;;;;;;;;;;;;;;;;;;5052334;28;19940;-67
2023/05/14 08:32:47;;;;;;;;;;;;;;;;;;5052471;28;19960;-68
2023/05/14 08:35:14;;;;;;;;;;;;;;;;;;5051851;28;20368;-68
2023/05/14 08:37:41;;;;;;;;;;;;;;;;;;5052142;28;19963;-68
2023/05/14 08:40:08;;;;;;;;;;;;;;;;;;5052593;28;19933;-68
2023/05/14 08:42:35;;;;;;;;;;;;;;;;;;5053145;28;20367;-67
2023/05/14 08:45:02;;;;;;;;;;;;;;;;;;5053870;28;19979;-68
2023/05/14 08:47:29;;;;;;;;;;;;;;;;;;5052140;28;20020;-68
2023/05/14 08:49:56;;;;;;;;;;;;;;;;;;5052187;28;19986;-68
2023/05/14 08:52:23;;;;;;;;;;;;;;;;;;5051046;28;19972;-68
2023/05/14 08:54:50;;;;;;;;;;;;;;;;;;5052048;28;20395;-68
2023/05/14 08:57:17;;;;;;;;;;;;;;;;;;5051205;28;19979;-67
2023/05/14 08:59:44;;;;;;;;;;;;;;;;;;5052442;28;20430;-68
2023/05/14 09:02:11;;;;;;;;;;;;;;;;;;5051663;28;20023;-68
2023/05/14 09:04:38;;;;;;;;;;;;;;;;;;5052599;28;19929;-68
2023/05/14 09:07:06;;;;;;;;;;;;;;;;;;5051756;28;19924;-67
2023/05/14 09:09:33;;;;;;;;;;;;;;;;;;5052948;28;20007;-67
2023/05/14 09:12:00;;;;;;;;;;;;;;;;;;5051936;28;20030;-66
2023/05/14 09:14:27;;;;;;;;;;;;;;;;;;5052141;28;19972;-66
2023/05/14 09:16:55;;;;;;;;;;;;;;;;;;5051075;28;19929;-67
2023/05/14 09:19:22;;;;;;;;;;;;;;;;;;5052957;28;19933;-67
2023/05/14 09:21:49;;;;;;;;;;;;;;;;;;5052291;28;20288;-68
2023/05/14 09:24:16;;;;;;;;;;;;;;;;;;5053274;28;19979;-68
2023/05/14 09:26:43;;;;;;;;;;;;;;;;;;5044882;28;19929;-67
2023/05/14 09:29:10;;;;;;;;;;;;;;;;;;5058470;28;19924;-68
2023/05/14 09:31:37;;;;;;;;;;;;;;;;;;5045586;28;19924;-68
2023/05/14 09:34:04;;;;;;;;;;;;;;;;;;5051418;28;19929;-68
2023/05/14 09:36:31;;;;;;;;;;;;;;;;;;5047521;28;19924;-68
2023/05/14 09:38:58;;;;;;;;;;;;;;;;;;5049507;28;19967;-68
2023/05/14 09:41:25;;;;;;;;;;;;;;;;;;5051065;28;19925;-68
2023/05/14 09:43:53;;;;;;;;;;;;;;;;;;5052026;28;19926;-67
2023/05/14 09:46:21;;;;;;;;;;;;;;;;;;5052221;28;19963;-68
2023/05/14 09:48:48;;;;;;;;;;;;;;;;;;5051165;28;19932;-68
2023/05/14 09:51:16;;;;;;;;;;;;;;;;;;5050669;28;19925;-67
2023/05/14 09:53:43;;;;;;;;;;;;;;;;;;5044569;28;20040;-68
2023/05/14 09:56:10;;;;;;;;;;;;;;;;;;5046049;28;21859;-66
2023/05/14 09:58:37;;;;;;;;;;;;;;;;;;5049971;28;19925;-67
2023/05/14 10:01:04;;;;;;;;;;;;;;;;;;5050125;28;19987;-67
2023/05/14 10:03:31;;;;;;;;;;;;;;;;;;5050694;28;20478;-74
2023/05/14 10:05:58;;;;;;;;;;;;;;;;;;5052909;28;19929;-77
2023/05/14 10:08:25;;;;;;;;;;;;;;;;;;5050415;28;19994;-74
2023/05/14 10:10:52;;;;;;;;;;;;;;;;;;5049944;28;20256;-74
2023/05/14 10:13:19;;;;;;;;;;;;;;;;;;5049966;28;19991;-73
2023/05/14 10:15:46;;;;;;;;;;;;;;;;;;5051710;28;19925;-75
2023/05/14 10:18:13;;;;;;;;;;;;;;;;;;5050782;28;19975;-74
2023/05/14 10:20:40;;;;;;;;;;;;;;;;;;5050917;28;20504;-75
2023/05/14 10:23:07;;;;;;;;;;;;;;;;;;5051299;28;19925;-75
2023/05/14 10:25:34;;;;;;;;;;;;;;;;;;5050605;28;19968;-75
2023/05/14 10:28:01;;;;;;;;;;;;;;;;;;5051297;28;19979;-75
2023/05/14 10:30:28;;;;;;;;;;;;;;;;;;5054819;28;19994;-75
2023/05/14 10:32:55;;;;;;;;;;;;;;;;;;5055717;28;20342;-76
2023/05/14 10:35:24;;;;;;;;;;;;;;;;;;5050251;28;19978;-76
2023/05/14 10:37:51;;;;;;;;;;;;;;;;;;5055476;28;20326;-68
2023/05/14 10:40:18;;;;;;;;;;;;;;;;;;5053560;28;20018;-67
2023/05/14 10:42:45;;;;;;;;;;;;;;;;;;5051885;28;19965;-67
2023/05/14 10:45:12;;;;;;;;;;;;;;;;;;5053749;28;20402;-68
2023/05/14 10:47:39;;;;;;;;;;;;;;;;;;5054540;28;19986;-68
2023/05/14 10:50:06;;;;;;;;;;;;;;;;;;5054150;28;19925;-68
2023/05/14 10:52:33;;;;;;;;;;;;;;;;;;5053779;28;19929;-68
2023/05/14 10:55:01;;;;;;;;;;;;;;;;;;5051996;28;19978;-67
2023/05/14 10:57:28;;;;;;;;;;;;;;;;;;5053843;28;19975;-68
2023/05/14 10:59:55;;;;;;;;;;;;;;;;;;5053490;28;19971;-67
2023/05/14 11:02:22;;;;;;;;;;;;;;;;;;5054506;28;19929;-68
2023/05/14 11:04:49;;;;;;;;;;;;;;;;;;5053856;28;19964;-68
2023/05/14 11:07:16;;;;;;;;;;;;;;;;;;5053732;28;19925;-68
2023/05/14 11:09:43;;;;;;;;;;;;;;;;;;5053175;28;19929;-68
2023/05/14 11:12:10;;;;;;;;;;;;;;;;;;5053312;28;19929;-68
2023/05/14 11:14:37;;;;;;;;;;;;;;;;;;5053789;28;20316;-68
2023/05/14 11:17:04;;;;;;;;;;;;;;;;;;5053882;28;19925;-68
2023/05/14 11:19:31;;;;;;;;;;;;;;;;;;5050868;28;19947;-68
2023/05/14 11:22:00;;;;;;;;;;;;;;;;;;5052297;28;19932;-69
2023/05/14 11:24:27;;;;;;;;;;;;;;;;;;5050929;28;19964;-68
2023/05/14 11:26:55;;;;;;;;;;;;;;;;;;5055245;28;19925;-68
2023/05/14 11:29:22;;;;;;;;;;;;;;;;;;5054353;28;20019;-69
2023/05/14 11:31:49;;;;;;;;;;;;;;;;;;5051593;28;19925;-68
2023/05/14 11:34:16;;;;;;;;;;;;;;;;;;5053616;28;19925;-68
2023/05/14 11:36:43;;;;;;;;;;;;;;;;;;5054122;28;20307;-68
2023/05/14 11:39:10;;;;;;;;;;;;;;;;;;5052159;28;20029;-68
2023/05/14 11:41:37;;;;;;;;;;;;;;;;;;5049113;28;19929;-68
2023/05/14 11:44:04;;;;;;;;;;;;;;;;;;5050455;28;19929;-68
2023/05/14 11:46:31;;;;;;;;;;;;;;;;;;5053059;28;19928;-69
2023/05/14 11:48:58;;;;;;;;;;;;;;;;;;5052946;28;19978;-68
2023/05/14 11:51:25;;;;;;;;;;;;;;;;;;5053128;28;20379;-68
2023/05/14 11:53:52;;;;;;;;;;;;;;;;;;5052911;28;19983;-69
2023/05/14 11:56:20;;;;;;;;;;;;;;;;;;5054010;28;19971;-69
2023/05/14 11:58:47;;;;;;;;;;;;;;;;;;5052764;28;19933;-68
2023/05/14 12:01:14;;;;;;;;;;;;;;;;;;5053051;28;19978;-68
2023/05/14 12:03:41;;;;;;;;;;;;;;;;;;5052916;28;20436;-68
2023/05/14 12:06:08;;;;;;;;;;;;;;;;;;5053433;28;19925;-68
2023/05/14 12:08:35;;;;;;;;;;;;;;;;;;5053112;28;20330;-67
2023/05/14 12:11:02;;;;;;;;;;;;;;;;;;5052599;28;19925;-68
2023/05/14 12:13:29;;;;;;;;;;;;;;;;;;5053249;28;20453;-67
2023/05/14 12:15:56;;;;;;;;;;;;;;;;;;5052726;28;19925;-68
2023/05/14 12:18:23;;;;;;;;;;;;;;;;;;5052936;28;19931;-68
2023/05/14 12:20:51;;;;;;;;;;;;;;;;;;5053428;28;19936;-68
2023/05/14 12:23:18;;;;;;;;;;;;;;;;;;5051418;28;20015;-68
2023/05/14 12:25:45;;;;;;;;;;;;;;;;;;5051384;28;20954;-69
2023/05/14 12:28:12;;;;;;;;;;;;;;;;;;5047348;28;19971;-67
2023/05/14 12:30:39;;;;;;;;;;;;;;;;;;5050701;28;19925;-68
2023/05/14 12:33:06;;;;;;;;;;;;;;;;;;5052075;28;19925;-68
2023/05/14 12:35:33;;;;;;;;;;;;;;;;;;5046095;28;20427;-68
2023/05/14 12:38:00;;;;;;;;;;;;;;;;;;5051430;28;19929;-68
2023/05/14 12:40:27;;;;;;;;;;;;;;;;;;5048879;28;19978;-68
2023/05/14 12:42:54;;;;;;;;;;;;;;;;;;5051467;28;20391;-68
2023/05/14 12:45:21;;;;;;;;;;;;;;;;;;5051877;28;19929;-68
2023/05/14 12:47:48;;;;;;;;;;;;;;;;;;5049861;28;19955;-69
2023/05/14 12:50:15;;;;;;;;;;;;;;;;;;5049257;28;19972;-68
2023/05/14 12:52:42;;;;;;;;;;;;;;;;;;5051735;28;19933;-68
2023/05/14 12:55:09;;;;;;;;;;;;;;;;;;5049366;28;20016;-68
2023/05/14 12:57:36;;;;;;;;;;;;;;;;;;5052337;28;19924;-67
2023/05/14 13:00:05;;;;;;;;;;;;;;;;;;5045567;28;19981;-67
2023/05/14 13:02:32;;;;;;;;;;;;;;;;;;5050502;28;19929;-67
2023/05/14 13:05:01;;;;;;;;;;;;;;;;;;5052162;28;20427;-67
2023/05/14 13:07:28;;;;;;;;;;;;;;;;;;5053587;28;19929;-68
2023/05/14 13:09:55;;;;;;;;;;;;;;;;;;5058359;28;19947;-67
2023/05/14 13:12:22;;;;;;;;;;;;;;;;;;5053329;28;19925;-70
2023/05/14 13:14:49;;;;;;;;;;;;;;;;;;5053291;28;19933;-69
2023/05/14 13:17:16;;;;;;;;;;;;;;;;;;5052238;28;19954;-69
2023/05/14 13:19:43;;;;;;;;;;;;;;;;;;5052978;28;19950;-69
2023/05/14 13:22:10;;;;;;;;;;;;;;;;;;5053148;28;19970;-69
2023/05/14 13:24:37;;;;;;;;;;;;;;;;;;5052717;28;19925;-69
2023/05/14 13:27:04;;;;;;;;;;;;;;;;;;5063352;28;19947;-69
2023/05/14 13:29:31;;;;;;;;;;;;;;;;;;5072774;28;19924;-69
2023/05/14 13:31:58;;;;;;;;;;;;;;;;;;5073242;28;20002;-70
2023/05/14 13:34:25;;;;;;;;;;;;;;;;;;5059835;28;20423;-70
2023/05/14 13:36:52;;;;;;;;;;;;;;;;;;5053260;28;19932;-70
2023/05/14 13:39:21;;;;;;;;;;;;;;;;;;5053005;28;20358;-69
2023/05/14 13:41:49;;;;;;;;;;;;;;;;;;5050066;28;19933;-70
2023/05/14 13:44:16;;;;;;;;;;;;;;;;;;5065642;28;19925;-69
2023/05/14 13:46:43;;;;;;;;;;;;;;;;;;5073178;28;20011;-70
2023/05/14 13:49:10;;;;;;;;;;;;;;;;;;5065279;28;20354;-69
2023/05/14 13:51:37;;;;;;;;;;;;;;;;;;5051638;28;19979;-69
2023/05/14 13:54:04;;;;;;;;;;;;;;;;;;5052242;28;19924;-69
2023/05/14 13:56:31;;;;;;;;;;;;;;;;;;5051920;28;19925;-69
2023/05/14 13:58:58;;;;;;;;;;;;;;;;;;5052483;28;19925;-69
2023/05/14 14:01:25;;;;;;;;;;;;;;;;;;5054229;28;19925;-69
2023/05/14 14:03:52;;;;;;;;;;;;;;;;;;5052783;28;19932;-69
2023/05/14 14:06:19;;;;;;;;;;;;;;;;;;5052970;28;19971;-69
2023/05/14 14:08:46;;;;;;;;;;;;;;;;;;5052540;28;19924;-69
2023/05/14 14:11:13;;;;;;;;;;;;;;;;;;5051281;28;19979;-69
2023/05/14 14:13:42;;;;;;;;;;;;;;;;;;5051950;28;20281;-69
2023/05/14 14:16:09;;;;;;;;;;;;;;;;;;5053003;28;19925;-69
2023/05/14 14:18:36;;;;;;;;;;;;;;;;;;5068458;28;19986;-69
2023/05/14 14:21:03;;;;;;;;;;;;;;;;;;5063786;28;19987;-68
2023/05/14 14:23:30;;;;;;;;;;;;;;;;;;5051351;28;19929;-69
2023/05/14 14:25:57;;;;;;;;;;;;;;;;;;5051178;28;19925;-69
2023/05/14 14:28:24;;;;;;;;;;;;;;;;;;5052686;28;20359;-68
2023/05/14 14:30:51;;;;;;;;;;;;;;;;;;5051488;28;19925;-68
2023/05/14 14:33:18;;;;;;;;;;;;;;;;;;5051556;28;20375;-69
2023/05/14 14:35:45;;;;;;;;;;;;;;;;;;5069271;28;19982;-69
2023/05/14 14:38:12;;;;;;;;;;;;;;;;;;5072213;28;19925;-68
2023/05/14 14:40:39;;;;;;;;;;;;;;;;;;5056458;28;20402;-68
2023/05/14 14:43:06;;;;;;;;;;;;;;;;;;5050532;28;19925;-68
2023/05/14 14:45:33;;;;;;;;;;;;;;;;;;5052173;28;19928;-68
2023/05/14 14:48:00;;;;;;;;;;;;;;;;;;5052054;28;20334;-68
2023/05/14 14:50:27;;;;;;;;;;;;;;;;;;5050254;28;19925;-68
2023/05/14 14:52:54;;;;;;;;;;;;;;;;;;5061742;28;19975;-68
2023/05/14 14:55:21;;;;;;;;;;;;;;;;;;5050919;28;19925;-68
2023/05/14 14:57:48;;;;;;;;;;;;;;;;;;5050794;28;20338;-68
2023/05/14 15:00:15;;;;;;;;;;;;;;;;;;5051809;28;19971;-68
2023/05/14 15:02:42;;;;;;;;;;;;;;;;;;5050452;28;19964;-68
2023/05/14 15:05:09;;;;;;;;;;;;;;;;;;5052164;28;19925;-68
2023/05/14 15:07:36;;;;;;;;;;;;;;;;;;5051300;28;19925;-68
2023/05/14 15:10:03;;;;;;;;;;;;;;;;;;5045242;28;19933;-68
2023/05/14 15:12:30;;;;;;;;;;;;;;;;;;5049351;28;19955;-68
2023/05/14 15:14:57;;;;;;;;;;;;;;;;;;5052102;28;19987;-68
2023/05/14 15:17:25;;;;;;;;;;;;;;;;;;5050452;28;19951;-68
2023/05/14 15:19:52;;;;;;;;;;;;;;;;;;5052757;28;20047;-68
2023/05/14 15:22:19;;;;;;;;;;;;;;;;;;5046478;28;20315;-68
2023/05/14 15:24:47;;;;;;;;;;;;;;;;;;5049729;28;20027;-69
2023/05/14 15:27:14;;;;;;;;;;;;;;;;;;5050433;28;20391;-68
2023/05/14 15:29:41;;;;;;;;;;;;;;;;;;5046706;28;20015;-69
2023/05/14 15:32:08;;;;;;;;;;;;;;;;;;5047523;28;19932;-69
2023/05/14 15:34:35;;;;;;;;;;;;;;;;;;5051030;28;20383;-69
2023/05/14 15:37:02;;;;;;;;;;;;;;;;;;5061920;28;19999;-69
2023/05/14 15:39:30;;;;;;;;;;;;;;;;;;5059559;28;19925;-68
2023/05/14 15:41:57;;;;;;;;;;;;;;;;;;5062652;28;20015;-69
2023/05/14 15:44:25;;;;;;;;;;;;;;;;;;5058763;28;19986;-68
2023/05/14 15:46:52;;;;;;;;;;;;;;;;;;5051172;28;19924;-68
2023/05/14 15:49:19;;;;;;;;;;;;;;;;;;5057728;28;20421;-68
2023/05/14 15:51:46;;;;;;;;;;;;;;;;;;5062774;28;19924;-69
2023/05/14 15:54:13;;;;;;;;;;;;;;;;;;5057316;28;19925;-69
2023/05/14 15:56:43;;;;;;;;;;;;;;;;;;5051922;28;19970;-69
2023/05/14 15:59:10;;;;;;;;;;;;;;;;;;5067636;28;19924;-68
2023/05/14 16:01:37;;;;;;;;;;;;;;;;;;5059232;28;20295;-68
2023/05/14 16:04:04;;;;;;;;;;;;;;;;;;5062194;28;19970;-68
2023/05/14 16:06:31;;;;;;;;;;;;;;;;;;5059687;28;19978;-69
2023/05/14 16:08:59;;;;;;;;;;;;;;;;;;5053357;28;19924;-68
2023/05/14 16:11:26;;;;;;;;;;;;;;;;;;5054040;28;20346;-69
2023/05/14 16:13:53;;;;;;;;;;;;;;;;;;5054678;28;19928;-70
2023/05/14 16:16:21;;;;;;;;;;;;;;;;;;5057368;28;19951;-69
2023/05/14 16:18:48;;;;;;;;;;;;;;;;;;5050768;28;20066;-68
2023/05/14 16:21:17;;;;;;;;;;;;;;;;;;5054320;28;20282;-69
2023/05/14 16:23:45;;;;;;;;;;;;;;;;;;5060876;28;20011;-69
2023/05/14 16:26:12;;;;;;;;;;;;;;;;;;5062824;28;19928;-69
2023/05/14 16:28:41;;;;;;;;;;;;;;;;;;5060872;28;19956;-68
2023/05/14 16:31:08;;;;;;;;;;;;;;;;;;5049390;28;19925;-69
2023/05/14 16:33:35;;;;;;;;;;;;;;;;;;5062726;28;19990;-69
2023/05/14 16:36:02;;;;;;;;;;;;;;;;;;5064734;28;19932;-69
2023/05/14 16:38:29;;;;;;;;;;;;;;;;;;5061597;28;19929;-69
2023/05/14 16:40:56;;;;;;;;;;;;;;;;;;5050828;28;19936;-69
2023/05/14 16:43:38;;;;;;;;;;;;;;;;;;;;;